Apple Valley, Minnesota
Current Conditions -  °F | °C
As of 8:49 AM on Friday 24 Oct 2014 (Local Time) from KLVN Reporting Station
Broken Clouds Broken Clouds  
Wind Chill: 46°   Ceiling: 4100
Heat Index: 48°   Visibility: 10mi
Dew Point: 46°   Wind: 5mph
Humidity: 93%   Direction: 120°ESE
Pressure: 29.88"   Gusts: NA
Location:  44.74°N, 93.22°W
Report Text: KLVN 241349Z AUTO 12004KT 10SM BKN041 BKN047 09/08 A2988 RMK AO2
Loading
Personal Weather Stations






























Interactive Weather Map New forecast layout! Learn more

10-Day Weather Forecast

Advertisements
Track Severe Weather on mobile